Tropical Cyclones
[Index]
Main Index Home Page Stock Weather Photos Extreme Storms Discussion Storm News and Storm Chasing Reports Tropical Cyclones / Hurricanes / Typhoons Weather Data and Links Wild Fires / Bushfires Weather Observation Techniques Weather Picture Catalogue Tornado Pictures and Reports Stock Video Footage and DVDs for sale
Season 2008-2009 Tropical Cyclone HAMISH Track Map
Season 2008-2009 Summaries: [BoM-AU] [JTWC-AU] [JTWC-SIO] [JTWC-SPAC] [JTWC-SH]
<<- Previous TC | BoM 2008-2009 Season | Next TC ->>

click for intensity scale information  Lat/long Grid: Show Hide

 Date Labels: Show Hide

Bureau of Meteorology Tropical Cyclone Data

Name: HAMISH
Number: 926 / 200809_17

05 Mar 2009 00:00 UTC to 11 Mar 2009 18:00 UTC

    date/time    lat    long    hPa   cat  kts
2009-03-05 00   12.9   147.9    999         30          
2009-03-05 06   13.2   147.4    996         35          
2009-03-05 12   13.4   147.1    988    1    50          
2009-03-05 18   14.0   147.0    986    1    55          
2009-03-06 00   14.5   146.8    982    2    60          
2009-03-06 06   14.9   146.7    973    2    65          
2009-03-06 12   15.5   147.3    965    3    80          
2009-03-06 18   16.2   147.7    962    3    90          
2009-03-07 00   17.1   148.2    946    4    100          
2009-03-07 06   17.9   148.8    933    4    110          
2009-03-07 12   18.5   149.4    927    5    115          
2009-03-07 18   19.3   150.0    929    5    115          
2009-03-08 00   20.0   150.6    929    5    115          
2009-03-08 06   20.8   151.1    924    5    115          
2009-03-08 12   21.2   151.6    925    5    115          
2009-03-08 18   21.6   152.1    927    5    115          
2009-03-09 00   22.2   152.6    948    4    95          
2009-03-09 06   22.8   153.2    948    4    95          
2009-03-09 12   23.3   153.8    954    4    90          
2009-03-09 18   23.8   154.2    951    4    90          
2009-03-10 00   24.2   154.8    954    4    90          
2009-03-10 06   24.8   155.7    952    4    90          
2009-03-10 12   24.8   156.1    961    3    80          
2009-03-10 18   24.7   155.5    968    3    70          
2009-03-11 00   24.3   155.0    978    2    60          
2009-03-11 06   23.4   154.9    978    2    60          
2009-03-11 12   22.8   154.2    990    1    45          
2009-03-11 18   22.3   153.4   1000         30          
Winds are 10-min average.

Tropical cyclone tracks developed by Michael Bath using data from the Bureau of Meteorology and Google Maps.


[Australian Severe Weather index] [Copyright Notice] [Email Contacts] [Search This Site] [Privacy Policy]
Document: tropical_cyclone_hamish.htm Updated: 29 June 2017